Pepin — WDI5169 — position and weather

sailwx.info

Track history (hours):
 
Tides and Currents Weather Stations Pressure Air Temp Water Temp Dewpoint Dewpoint Depression Visibility Wind Speed Wind Dir Waves Ship Positions

Pepin

Owner: Miami River Towing Company Inc., Miami, FL. More information available from US FCC via Universal Licensing System and Coast Guard Vessel Documentation Center.

Last reported at 2018-Apr-21 22:53 UTC. Time now 2018-Apr-24 08:52 UTC.
Position N 25°48' W 080°15'.

Length 15 m; draft 1.7 m.

Type: Tug. MMSI: 367705830.

Date/timePositionNaut miles runAvg speedWind from/ knotsBaromVisibWave heightAir tempDewpointWater temp
2018-Apr-21 22:53N 25°48' W 080°15'2 4.6
2018-Apr-21 22:30N 25°47' W 080°14'2 5.0
2018-Apr-21 22:01N 25°46' W 080°11'0 1.0
2018-Apr-21 21:31N 25°46' W 080°12'1 2.2
2018-Apr-21 21:00N 25°47' W 080°13'1 2.4
2018-Apr-21 20:30N 25°47' W 080°14'1 1.9
2018-Apr-21 20:00N 25°48' W 080°15'1 3.0
2018-Apr-21 19:30N 25°47' W 080°13'2 4.7
2018-Apr-21 19:00N 25°46' W 080°11'1 1.7
2018-Apr-21 18:25N 25°46' W 080°12'1 2.0
2018-Apr-21 17:58N 25°47' W 080°13'1 2.2
2018-Apr-21 17:25N 25°47' W 080°14'1 1.9
2018-Apr-21 16:58N 25°48' W 080°15'0 0.4
2018-Apr-21 16:25N 25°48' W 080°15'0 1.0
2018-Apr-21 15:59N 25°48' W 080°15'0 0.0
2018-Apr-21 03:58N 25°48' W 080°15'0 0.9
2018-Apr-21 03:25N 25°48' W 080°15'0 0.1
2018-Apr-21 02:58N 25°48' W 080°15'0 0.0
2018-Apr-21 02:28N 25°48' W 080°15'0 0.0
2018-Apr-21 01:58N 25°48' W 080°15'1 1.0
2018-Apr-21 01:28N 25°48' W 080°15'0 0.0
2018-Apr-20 22:16N 25°48' W 080°15'0 0.0
2018-Apr-20 21:58N 25°48' W 080°15'0 0.0
2018-Apr-20 21:28N 25°48' W 080°15'2 3.5
2018-Apr-20 21:00N 25°47' W 080°14'2 4.7
2018-Apr-20 20:30N 25°46' W 080°11'0 0.3
2018-Apr-20 20:00N 25°46' W 080°11'1 2.2
2018-Apr-20 19:30N 25°47' W 080°12'1 2.6
2018-Apr-20 18:59N 25°47' W 080°14'1 1.7
2018-Apr-20 18:23N 25°48' W 080°15'0 0.1
2018-Apr-20 18:00N 25°48' W 080°15'1 1.2
2018-Apr-20 17:30N 25°47' W 080°14'1 2.7
2018-Apr-20 17:00N 25°47' W 080°13'1 2.5
2018-Apr-20 16:30N 25°46' W 080°12'1 1.6
2018-Apr-20 16:00N 25°46' W 080°11'2 4.9
2018-Apr-20 15:30N 25°47' W 080°13'1 2.1
2018-Apr-20 14:55N 25°48' W 080°15'1 2.2
2018-Apr-20 14:29N 25°47' W 080°14'1 2.8
2018-Apr-20 13:59N 25°47' W 080°12'1 2.3
2018-Apr-20 13:30N 25°46' W 080°11'1 1.3
2018-Apr-20 13:00N 25°46' W 080°12'3 5.8
2018-Apr-20 12:30N 25°48' W 080°15'1 1.3
2018-Apr-20 11:58N 25°48' W 080°15'0 0.0
2018-Apr-20 11:28N 25°48' W 080°15'0 0.0
2018-Apr-19 20:59N 25°48' W 080°15'0 0.0
2018-Apr-19 20:26N 25°48' W 080°15'0 0.5
2018-Apr-19 20:00N 25°48' W 080°15'0 0.3
2018-Apr-19 19:23N 25°48' W 080°15'0 0.0
2018-Apr-19 18:53N 25°48' W 080°15'0 0.0
2018-Apr-19 18:30N 25°48' W 080°15'0 0.0
2018-Apr-19 17:56N 25°48' W 080°15'0 0.0
2018-Apr-19 17:26N 25°48' W 080°15'1 1.4
2018-Apr-19 16:59N 25°47' W 080°14'1 2.6
2018-Apr-19 16:30N 25°47' W 080°13'1 2.6
2018-Apr-19 16:00N 25°46' W 080°12'1 2.5
2018-Apr-19 15:29N 25°46' W 080°10'2 3.1
2018-Apr-19 15:00N 25°46' W 080°12'3 5.5
2018-Apr-19 14:29N 25°48' W 080°15'0 0.9
2018-Apr-19 14:00N 25°48' W 080°15'0 0.0
2018-Apr-19 13:27N 25°48' W 080°15'0 0.0
2018-Apr-19 06:41N 25°48' W 080°15'0 1.5
2018-Apr-19 06:30N 25°48' W 080°15'2 4.0
2018-Apr-19 06:01N 25°47' W 080°13'2 4.3
2018-Apr-19 05:31N 25°46' W 080°11'1 1.8
2018-Apr-19 04:52N 25°46' W 080°12'1 2.5
2018-Apr-19 04:29N 25°47' W 080°13'1 1.0
2018-Apr-19 03:59N 25°47' W 080°13'1 2.1
2018-Apr-19 03:29N 25°48' W 080°14'0 0.6
2018-Apr-19 02:59N 25°48' W 080°15'0 0.7
2018-Apr-19 02:30N 25°48' W 080°15'0 0.3
2018-Apr-19 01:53N 25°48' W 080°15'0 0.0
2018-Apr-18 16:38N 25°48' W 080°15'0 0.0
2018-Apr-18 16:29N 25°48' W 080°15'0 0.0
2018-Apr-18 15:58N 25°48' W 080°15'0 0.0
2018-Apr-18 15:29N 25°48' W 080°15'0 0.0
2018-Apr-18 14:59N 25°48' W 080°15'0 0.0
2018-Apr-18 14:29N 25°48' W 080°15'0 0.0
2018-Apr-18 13:59N 25°48' W 080°15'0 0.0
2018-Apr-18 13:29N 25°48' W 080°15'0 0.0
2018-Apr-18 12:59N 25°48' W 080°15'0 0.0
2018-Apr-18 12:29N 25°48' W 080°15'0 0.0
2018-Apr-16 13:36N 25°48' W 080°15'0 0.1
2018-Apr-16 13:30N 25°48' W 080°15'0 0.9
2018-Apr-16 12:59N 25°48' W 080°15'0 0.0
2018-Apr-16 12:20N 25°48' W 080°15'0 0.7
2018-Apr-16 12:00N 25°48' W 080°15'1 2.2
2018-Apr-16 11:27N 25°47' W 080°13'1 2.5
2018-Apr-16 10:57N 25°47' W 080°12'1 1.9
2018-Apr-16 10:30N 25°46' W 080°11'0 0.0
2018-Apr-16 10:00N 25°46' W 080°11'3 5.9
2018-Apr-16 09:30N 25°48' W 080°14'1 1.9
2018-Apr-16 08:58N 25°48' W 080°15'0 0.0
2018-Apr-16 08:28N 25°48' W 080°15'0 0.0
2018-Apr-15 03:13N 25°48' W 080°15'0 2.2
2018-Apr-15 03:00N 25°48' W 080°15'3 6.1
2018-Apr-15 02:30N 25°46' W 080°12'1 1.1
2018-Apr-15 02:00N 25°46' W 080°11'1 1.9
2018-Apr-15 01:29N 25°47' W 080°12'1 2.4
2018-Apr-15 00:59N 25°47' W 080°13'1 2.2
2018-Apr-15 00:29N 25°48' W 080°15'1 1.5
2018-Apr-14 23:59N 25°48' W 080°15'0 0.0
2018-Apr-14 23:30N 25°48' W 080°15'0 0.0
2018-Apr-14 14:44N 25°48' W 080°15'0 0.9
2018-Apr-14 14:30N 25°48' W 080°15'1 2.5
2018-Apr-14 14:00N 25°47' W 080°14'2 4.2
2018-Apr-14 13:30N 25°46' W 080°12'1 1.3
2018-Apr-14 13:00N 25°46' W 080°11'1 1.9
2018-Apr-14 12:30N 25°47' W 080°12'1 2.4
2018-Apr-14 12:00N 25°47' W 080°13'1 2.3
2018-Apr-14 11:27N 25°48' W 080°15'0 1.0
2018-Apr-14 11:00N 25°48' W 080°15'0 0.4
2018-Apr-14 10:28N 25°48' W 080°15'0 0.0
2018-Apr-14 02:41N 25°48' W 080°15'0 1.9
2018-Apr-14 02:30N 25°48' W 080°15'0 0.3
2018-Apr-14 02:00N 25°48' W 080°15'0 0.8
2018-Apr-14 01:24N 25°48' W 080°15'0 0.0
2018-Apr-13 23:32N 25°48' W 080°15'0 0.0
2018-Apr-13 23:29N 25°48' W 080°15'0 0.0
2018-Apr-13 22:53N 25°48' W 080°15'0 0.0
2018-Apr-13 22:29N 25°48' W 080°15'0 0.0
2018-Apr-13 21:59N 25°48' W 080°15'0 0.0
2018-Apr-13 21:31N 25°48' W 080°15'1 1.7
2018-Apr-13 20:56N 25°48' W 080°14'1 2.3
2018-Apr-13 20:30N 25°47' W 080°13'1 2.5
2018-Apr-13 20:00N 25°46' W 080°12'1 2.0
2018-Apr-13 19:30N 25°46' W 080°11'1 1.0
2018-Apr-13 18:58N 25°46' W 080°10'0 0.0
2018-Apr-13 18:28N 25°46' W 080°10'0 0.0
2018-Apr-13 17:58N 25°46' W 080°10'0 0.0
2018-Apr-13 17:28N 25°46' W 080°10'0 0.0
2018-Apr-13 16:58N 25°46' W 080°10'0 0.0
2018-Apr-13 16:28N 25°46' W 080°10'0 0.6
2018-Apr-13 15:59N 25°46' W 080°11'1 2.2
2018-Apr-13 15:30N 25°46' W 080°12'1 2.6
2018-Apr-13 14:58N 25°47' W 080°13'1 1.5
2018-Apr-13 14:28N 25°47' W 080°14'1 1.8
2018-Apr-13 13:55N 25°48' W 080°15'0 0.7
2018-Apr-13 13:29N 25°48' W 080°15'1 2.3
2018-Apr-13 12:57N 25°47' W 080°14'1 2.5
2018-Apr-13 12:31N 25°47' W 080°13'1 2.4
2018-Apr-13 11:59N 25°46' W 080°12'1 2.7
2018-Apr-13 11:30N 25°46' W 080°10'0 0.1
2018-Apr-13 11:00N 25°46' W 080°10'3 5.0
2018-Apr-13 10:30N 25°47' W 080°13'2 3.7
2018-Apr-13 09:52N 25°48' W 080°15'0 0.0
2018-Apr-13 09:28N 25°48' W 080°15'0 0.0
2018-Apr-12 16:28N 25°48' W 080°15'0 0.0
2018-Apr-12 15:52N 25°48' W 080°15'0 0.0
2018-Apr-12 15:28N 25°48' W 080°15'0 0.9
2018-Apr-12 15:00N 25°48' W 080°15'3 5.5
2018-Apr-12 14:30N 25°47' W 080°12'1 2.4
2018-Apr-12 14:00N 25°46' W 080°11'1 2.1
2018-Apr-12 13:29N 25°46' W 080°12'1 2.7
2018-Apr-12 13:00N 25°47' W 080°13'1 2.3
2018-Apr-12 12:30N 25°48' W 080°14'0 0.6
2018-Apr-12 11:59N 25°48' W 080°15'1 1.8
2018-Apr-12 11:26N 25°47' W 080°14'1 2.7
2018-Apr-12 11:00N 25°47' W 080°13'1 2.3
2018-Apr-12 10:30N 25°46' W 080°12'1 2.6
2018-Apr-12 10:00N 25°46' W 080°10'2 3.2
2018-Apr-12 09:30N 25°46' W 080°12'3 5.9
2018-Apr-12 09:00N 25°48' W 080°15'1 1.2
2018-Apr-12 08:29N 25°48' W 080°15'  
Track history (hours):
 
Tides and Currents Weather Stations Pressure Air Temp Water Temp Dewpoint Dewpoint Depression Visibility Wind Speed Wind Dir Waves Ship Positions

Pepin

Owner: Miami River Towing Company Inc., Miami, FL. More information available from US FCC via Universal Licensing System and Coast Guard Vessel Documentation Center.

Last reported at 2018-Apr-21 22:53 UTC. Time now 2018-Apr-24 08:52 UTC.
Position N 25°48' W 080°15'.

Length 15 m; draft 1.7 m.

Type: Tug. MMSI: 367705830.

Date/timePositionNaut miles runAvg speedWind from/ knotsBaromVisibWave heightAir tempDewpointWater temp
2018-Apr-21 22:53N 25°48' W 080°15'2 4.6
2018-Apr-21 22:30N 25°47' W 080°14'2 5.0
2018-Apr-21 22:01N 25°46' W 080°11'0 1.0
2018-Apr-21 21:31N 25°46' W 080°12'1 2.2
2018-Apr-21 21:00N 25°47' W 080°13'1 2.4
2018-Apr-21 20:30N 25°47' W 080°14'1 1.9
2018-Apr-21 20:00N 25°48' W 080°15'1 3.0
2018-Apr-21 19:30N 25°47' W 080°13'2 4.7
2018-Apr-21 19:00N 25°46' W 080°11'1 1.7
2018-Apr-21 18:25N 25°46' W 080°12'1 2.0
2018-Apr-21 17:58N 25°47' W 080°13'1 2.2
2018-Apr-21 17:25N 25°47' W 080°14'1 1.9
2018-Apr-21 16:58N 25°48' W 080°15'0 0.4
2018-Apr-21 16:25N 25°48' W 080°15'0 1.0
2018-Apr-21 15:59N 25°48' W 080°15'0 0.0
2018-Apr-21 03:58N 25°48' W 080°15'0 0.9
2018-Apr-21 03:25N 25°48' W 080°15'0 0.1
2018-Apr-21 02:58N 25°48' W 080°15'0 0.0
2018-Apr-21 02:28N 25°48' W 080°15'0 0.0
2018-Apr-21 01:58N 25°48' W 080°15'1 1.0
2018-Apr-21 01:28N 25°48' W 080°15'0 0.0
2018-Apr-20 22:16N 25°48' W 080°15'0 0.0
2018-Apr-20 21:58N 25°48' W 080°15'0 0.0
2018-Apr-20 21:28N 25°48' W 080°15'2 3.5
2018-Apr-20 21:00N 25°47' W 080°14'2 4.7
2018-Apr-20 20:30N 25°46' W 080°11'0 0.3
2018-Apr-20 20:00N 25°46' W 080°11'1 2.2
2018-Apr-20 19:30N 25°47' W 080°12'1 2.6
2018-Apr-20 18:59N 25°47' W 080°14'1 1.7
2018-Apr-20 18:23N 25°48' W 080°15'0 0.1
2018-Apr-20 18:00N 25°48' W 080°15'1 1.2
2018-Apr-20 17:30N 25°47' W 080°14'1 2.7
2018-Apr-20 17:00N 25°47' W 080°13'1 2.5
2018-Apr-20 16:30N 25°46' W 080°12'1 1.6
2018-Apr-20 16:00N 25°46' W 080°11'2 4.9
2018-Apr-20 15:30N 25°47' W 080°13'1 2.1
2018-Apr-20 14:55N 25°48' W 080°15'1 2.2
2018-Apr-20 14:29N 25°47' W 080°14'1 2.8
2018-Apr-20 13:59N 25°47' W 080°12'1 2.3
2018-Apr-20 13:30N 25°46' W 080°11'1 1.3
2018-Apr-20 13:00N 25°46' W 080°12'3 5.8
2018-Apr-20 12:30N 25°48' W 080°15'1 1.3
2018-Apr-20 11:58N 25°48' W 080°15'0 0.0
2018-Apr-20 11:28N 25°48' W 080°15'0 0.0
2018-Apr-19 20:59N 25°48' W 080°15'0 0.0
2018-Apr-19 20:26N 25°48' W 080°15'0 0.5
2018-Apr-19 20:00N 25°48' W 080°15'0 0.3
2018-Apr-19 19:23N 25°48' W 080°15'0 0.0
2018-Apr-19 18:53N 25°48' W 080°15'0 0.0
2018-Apr-19 18:30N 25°48' W 080°15'0 0.0
2018-Apr-19 17:56N 25°48' W 080°15'0 0.0
2018-Apr-19 17:26N 25°48' W 080°15'1 1.4
2018-Apr-19 16:59N 25°47' W 080°14'1 2.6
2018-Apr-19 16:30N 25°47' W 080°13'1 2.6
2018-Apr-19 16:00N 25°46' W 080°12'1 2.5
2018-Apr-19 15:29N 25°46' W 080°10'2 3.1
2018-Apr-19 15:00N 25°46' W 080°12'3 5.5
2018-Apr-19 14:29N 25°48' W 080°15'0 0.9
2018-Apr-19 14:00N 25°48' W 080°15'0 0.0
2018-Apr-19 13:27N 25°48' W 080°15'0 0.0
2018-Apr-19 06:41N 25°48' W 080°15'0 1.5
2018-Apr-19 06:30N 25°48' W 080°15'2 4.0
2018-Apr-19 06:01N 25°47' W 080°13'2 4.3
2018-Apr-19 05:31N 25°46' W 080°11'1 1.8
2018-Apr-19 04:52N 25°46' W 080°12'1 2.5
2018-Apr-19 04:29N 25°47' W 080°13'1 1.0
2018-Apr-19 03:59N 25°47' W 080°13'1 2.1
2018-Apr-19 03:29N 25°48' W 080°14'0 0.6
2018-Apr-19 02:59N 25°48' W 080°15'0 0.7
2018-Apr-19 02:30N 25°48' W 080°15'0 0.3
2018-Apr-19 01:53N 25°48' W 080°15'0 0.0
2018-Apr-18 16:38N 25°48' W 080°15'0 0.0
2018-Apr-18 16:29N 25°48' W 080°15'0 0.0
2018-Apr-18 15:58N 25°48' W 080°15'0 0.0
2018-Apr-18 15:29N 25°48' W 080°15'0 0.0
2018-Apr-18 14:59N 25°48' W 080°15'0 0.0
2018-Apr-18 14:29N 25°48' W 080°15'0 0.0
2018-Apr-18 13:59N 25°48' W 080°15'0 0.0
2018-Apr-18 13:29N 25°48' W 080°15'0 0.0
2018-Apr-18 12:59N 25°48' W 080°15'0 0.0
2018-Apr-18 12:29N 25°48' W 080°15'0 0.0
2018-Apr-16 13:36N 25°48' W 080°15'0 0.1
2018-Apr-16 13:30N 25°48' W 080°15'0 0.9
2018-Apr-16 12:59N 25°48' W 080°15'0 0.0
2018-Apr-16 12:20N 25°48' W 080°15'0 0.7
2018-Apr-16 12:00N 25°48' W 080°15'1 2.2
2018-Apr-16 11:27N 25°47' W 080°13'1 2.5
2018-Apr-16 10:57N 25°47' W 080°12'1 1.9
2018-Apr-16 10:30N 25°46' W 080°11'0 0.0
2018-Apr-16 10:00N 25°46' W 080°11'3 5.9
2018-Apr-16 09:30N 25°48' W 080°14'1 1.9
2018-Apr-16 08:58N 25°48' W 080°15'0 0.0
2018-Apr-16 08:28N 25°48' W 080°15'0 0.0
2018-Apr-15 03:13N 25°48' W 080°15'0 2.2
2018-Apr-15 03:00N 25°48' W 080°15'3 6.1
2018-Apr-15 02:30N 25°46' W 080°12'1 1.1
2018-Apr-15 02:00N 25°46' W 080°11'1 1.9
2018-Apr-15 01:29N 25°47' W 080°12'1 2.4
2018-Apr-15 00:59N 25°47' W 080°13'1 2.2
2018-Apr-15 00:29N 25°48' W 080°15'1 1.5
2018-Apr-14 23:59N 25°48' W 080°15'0 0.0
2018-Apr-14 23:30N 25°48' W 080°15'0 0.0
2018-Apr-14 14:44N 25°48' W 080°15'0 0.9
2018-Apr-14 14:30N 25°48' W 080°15'1 2.5
2018-Apr-14 14:00N 25°47' W 080°14'2 4.2
2018-Apr-14 13:30N 25°46' W 080°12'1 1.3
2018-Apr-14 13:00N 25°46' W 080°11'1 1.9
2018-Apr-14 12:30N 25°47' W 080°12'1 2.4
2018-Apr-14 12:00N 25°47' W 080°13'1 2.3
2018-Apr-14 11:27N 25°48' W 080°15'0 1.0
2018-Apr-14 11:00N 25°48' W 080°15'0 0.4
2018-Apr-14 10:28N 25°48' W 080°15'0 0.0
2018-Apr-14 02:41N 25°48' W 080°15'0 1.9
2018-Apr-14 02:30N 25°48' W 080°15'0 0.3
2018-Apr-14 02:00N 25°48' W 080°15'0 0.8
2018-Apr-14 01:24N 25°48' W 080°15'0 0.0
2018-Apr-13 23:32N 25°48' W 080°15'0 0.0
2018-Apr-13 23:29N 25°48' W 080°15'0 0.0
2018-Apr-13 22:53N 25°48' W 080°15'0 0.0
2018-Apr-13 22:29N 25°48' W 080°15'0 0.0
2018-Apr-13 21:59N 25°48' W 080°15'0 0.0
2018-Apr-13 21:31N 25°48' W 080°15'1 1.7
2018-Apr-13 20:56N 25°48' W 080°14'1 2.3
2018-Apr-13 20:30N 25°47' W 080°13'1 2.5
2018-Apr-13 20:00N 25°46' W 080°12'1 2.0
2018-Apr-13 19:30N 25°46' W 080°11'1 1.0
2018-Apr-13 18:58N 25°46' W 080°10'0 0.0
2018-Apr-13 18:28N 25°46' W 080°10'0 0.0
2018-Apr-13 17:58N 25°46' W 080°10'0 0.0
2018-Apr-13 17:28N 25°46' W 080°10'0 0.0
2018-Apr-13 16:58N 25°46' W 080°10'0 0.0
2018-Apr-13 16:28N 25°46' W 080°10'0 0.6
2018-Apr-13 15:59N 25°46' W 080°11'1 2.2
2018-Apr-13 15:30N 25°46' W 080°12'1 2.6
2018-Apr-13 14:58N 25°47' W 080°13'1 1.5
2018-Apr-13 14:28N 25°47' W 080°14'1 1.8
2018-Apr-13 13:55N 25°48' W 080°15'0 0.7
2018-Apr-13 13:29N 25°48' W 080°15'1 2.3
2018-Apr-13 12:57N 25°47' W 080°14'1 2.5
2018-Apr-13 12:31N 25°47' W 080°13'1 2.4
2018-Apr-13 11:59N 25°46' W 080°12'1 2.7
2018-Apr-13 11:30N 25°46' W 080°10'0 0.1
2018-Apr-13 11:00N 25°46' W 080°10'3 5.0
2018-Apr-13 10:30N 25°47' W 080°13'2 3.7
2018-Apr-13 09:52N 25°48' W 080°15'0 0.0
2018-Apr-13 09:28N 25°48' W 080°15'0 0.0
2018-Apr-12 16:28N 25°48' W 080°15'0 0.0
2018-Apr-12 15:52N 25°48' W 080°15'0 0.0
2018-Apr-12 15:28N 25°48' W 080°15'0 0.9
2018-Apr-12 15:00N 25°48' W 080°15'3 5.5
2018-Apr-12 14:30N 25°47' W 080°12'1 2.4
2018-Apr-12 14:00N 25°46' W 080°11'1 2.1
2018-Apr-12 13:29N 25°46' W 080°12'1 2.7
2018-Apr-12 13:00N 25°47' W 080°13'1 2.3
2018-Apr-12 12:30N 25°48' W 080°14'0 0.6
2018-Apr-12 11:59N 25°48' W 080°15'1 1.8
2018-Apr-12 11:26N 25°47' W 080°14'1 2.7
2018-Apr-12 11:00N 25°47' W 080°13'1 2.3
2018-Apr-12 10:30N 25°46' W 080°12'1 2.6
2018-Apr-12 10:00N 25°46' W 080°10'2 3.2
2018-Apr-12 09:30N 25°46' W 080°12'3 5.9
2018-Apr-12 09:00N 25°48' W 080°15'1 1.2
2018-Apr-12 08:29N 25°48' W 080°15'  

Dump ship's entire track history